sensor_id;sensor_type;location;lat;lon;timestamp;temperature;humidity
9762;DHT22;4920;49.594;11.022;2023-04-08T00:01:32;6.30;99.90
9762;DHT22;4920;49.594;11.022;2023-04-08T00:04:01;6.30;99.90
9762;DHT22;4920;49.594;11.022;2023-04-08T00:06:32;6.30;99.90
9762;DHT22;4920;49.594;11.022;2023-04-08T00:09:00;6.30;99.90
9762;DHT22;4920;49.594;11.022;2023-04-08T00:11:29;6.20;99.90
9762;DHT22;4920;49.594;11.022;2023-04-08T00:13:59;6.20;99.90
9762;DHT22;4920;49.594;11.022;2023-04-08T00:16:27;6.10;99.90
9762;DHT22;4920;49.594;11.022;2023-04-08T00:18:56;6.00;99.90
9762;DHT22;4920;49.594;11.022;2023-04-08T00:21:25;5.90;99.90
9762;DHT22;4920;49.594;11.022;2023-04-08T00:23:55;5.90;99.90
9762;DHT22;4920;49.594;11.022;2023-04-08T00:26:23;5.80;99.90
9762;DHT22;4920;49.594;11.022;2023-04-08T00:28:52;5.80;99.90
9762;DHT22;4920;49.594;11.022;2023-04-08T00:31:21;5.70;99.90
9762;DHT22;4920;49.594;11.022;2023-04-08T00:33:50;5.70;99.90
9762;DHT22;4920;49.594;11.022;2023-04-08T00:36:18;5.60;99.90
9762;DHT22;4920;49.594;11.022;2023-04-08T00:38:47;5.60;99.90
9762;DHT22;4920;49.594;11.022;2023-04-08T00:41:18;5.60;99.90
9762;DHT22;4920;49.594;11.022;2023-04-08T00:43:46;5.50;99.90
9762;DHT22;4920;49.594;11.022;2023-04-08T00:46:15;5.50;99.90
9762;DHT22;4920;49.594;11.022;2023-04-08T00:48:44;5.40;99.90
9762;DHT22;4920;49.594;11.022;2023-04-08T00:51:13;5.40;99.90
9762;DHT22;4920;49.594;11.022;2023-04-08T00:53:42;5.40;99.90
9762;DHT22;4920;49.594;11.022;2023-04-08T00:56:11;5.30;99.90
9762;DHT22;4920;49.594;11.022;2023-04-08T00:58:41;5.30;99.90
9762;DHT22;4920;49.594;11.022;2023-04-08T01:01:13;5.30;99.90
9762;DHT22;4920;49.594;11.022;2023-04-08T01:03:59;5.30;99.90
9762;DHT22;4920;49.594;11.022;2023-04-08T01:06:33;5.30;99.90
9762;DHT22;4920;49.594;11.022;2023-04-08T01:09:09;5.30;99.90
9762;DHT22;4920;49.594;11.022;2023-04-08T01:11:43;5.20;99.90
9762;DHT22;4920;49.594;11.022;2023-04-08T01:14:20;5.30;99.90
9762;DHT22;4920;49.594;11.022;2023-04-08T01:16:51;5.30;99.90
9762;DHT22;4920;49.594;11.022;2023-04-08T01:19:27;5.30;99.90
9762;DHT22;4920;49.594;11.022;2023-04-08T01:22:02;5.30;99.90
9762;DHT22;4920;49.594;11.022;2023-04-08T01:24:35;5.30;99.90
9762;DHT22;4920;49.594;11.022;2023-04-08T01:27:09;5.40;99.90
9762;DHT22;4920;49.594;11.022;2023-04-08T01:29:38;5.40;99.90
9762;DHT22;4920;49.594;11.022;2023-04-08T01:32:09;5.40;99.90
9762;DHT22;4920;49.594;11.022;2023-04-08T01:34:39;5.40;99.90
9762;DHT22;4920;49.594;11.022;2023-04-08T01:37:08;5.50;99.90
9762;DHT22;4920;49.594;11.022;2023-04-08T01:39:39;5.50;99.90
9762;DHT22;4920;49.594;11.022;2023-04-08T01:42:12;5.50;99.90
9762;DHT22;4920;49.594;11.022;2023-04-08T01:44:41;5.50;99.90
9762;DHT22;4920;49.594;11.022;2023-04-08T01:47:12;5.50;99.90
9762;DHT22;4920;49.594;11.022;2023-04-08T01:49:42;5.50;99.90
9762;DHT22;4920;49.594;11.022;2023-04-08T01:52:12;5.50;99.90
9762;DHT22;4920;49.594;11.022;2023-04-08T01:54:44;5.50;99.90
9762;DHT22;4920;49.594;11.022;2023-04-08T01:57:18;5.60;99.90
9762;DHT22;4920;49.594;11.022;2023-04-08T01:59:50;5.60;99.90
9762;DHT22;4920;49.594;11.022;2023-04-08T02:02:21;5.60;99.90
9762;DHT22;4920;49.594;11.022;2023-04-08T02:04:50;5.60;99.90
9762;DHT22;4920;49.594;11.022;2023-04-08T02:07:19;5.60;99.90
9762;DHT22;4920;49.594;11.022;2023-04-08T02:09:48;5.60;99.90
9762;DHT22;4920;49.594;11.022;2023-04-08T02:12:19;5.60;99.90
9762;DHT22;4920;49.594;11.022;2023-04-08T02:14:47;5.50;99.90
9762;DHT22;4920;49.594;11.022;2023-04-08T02:17:20;5.60;99.90
9762;DHT22;4920;49.594;11.022;2023-04-08T02:19:58;5.50;99.90
9762;DHT22;4920;49.594;11.022;2023-04-08T02:22:32;5.50;99.90
9762;DHT22;4920;49.594;11.022;2023-04-08T02:25:06;5.50;99.90
9762;DHT22;4920;49.594;11.022;2023-04-08T02:27:38;5.50;99.90
9762;DHT22;4920;49.594;11.022;2023-04-08T02:30:10;5.50;99.90
9762;DHT22;4920;49.594;11.022;2023-04-08T02:32:40;5.40;99.90
9762;DHT22;4920;49.594;11.022;2023-04-08T02:35:11;5.40;99.90
9762;DHT22;4920;49.594;11.022;2023-04-08T02:37:40;5.40;99.90
9762;DHT22;4920;49.594;11.022;2023-04-08T02:40:23;5.40;99.90
9762;DHT22;4920;49.594;11.022;2023-04-08T02:42:56;5.40;99.90
9762;DHT22;4920;49.594;11.022;2023-04-08T02:45:29;5.40;99.90
9762;DHT22;4920;49.594;11.022;2023-04-08T02:47:59;5.40;99.90
9762;DHT22;4920;49.594;11.022;2023-04-08T02:50:28;5.40;99.90
9762;DHT22;4920;49.594;11.022;2023-04-08T02:52:57;5.40;99.90
9762;DHT22;4920;49.594;11.022;2023-04-08T02:55:25;5.40;99.90
9762;DHT22;4920;49.594;11.022;2023-04-08T02:57:55;5.40;99.90
9762;DHT22;4920;49.594;11.022;2023-04-08T03:00:24;5.50;99.90
9762;DHT22;4920;49.594;11.022;2023-04-08T03:02:53;5.50;99.90
9762;DHT22;4920;49.594;11.022;2023-04-08T03:05:22;5.50;99.90
9762;DHT22;4920;49.594;11.022;2023-04-08T03:07:51;5.50;99.90
9762;DHT22;4920;49.594;11.022;2023-04-08T03:10:19;5.50;99.90
9762;DHT22;4920;49.594;11.022;2023-04-08T03:12:48;5.50;99.90
9762;DHT22;4920;49.594;11.022;2023-04-08T03:15:18;5.50;99.90
9762;DHT22;4920;49.594;11.022;2023-04-08T03:17:47;5.50;99.90
9762;DHT22;4920;49.594;11.022;2023-04-08T03:20:15;5.50;99.90
9762;DHT22;4920;49.594;11.022;2023-04-08T03:22:44;5.40;99.90
9762;DHT22;4920;49.594;11.022;2023-04-08T03:25:12;5.30;99.90
9762;DHT22;4920;49.594;11.022;2023-04-08T03:27:41;5.30;99.90
9762;DHT22;4920;49.594;11.022;2023-04-08T03:30:10;5.30;99.90
9762;DHT22;4920;49.594;11.022;2023-04-08T03:32:41;5.20;99.90
9762;DHT22;4920;49.594;11.022;2023-04-08T03:35:10;5.20;99.90
9762;DHT22;4920;49.594;11.022;2023-04-08T03:37:38;5.20;99.90
9762;DHT22;4920;49.594;11.022;2023-04-08T03:40:08;5.20;99.90
9762;DHT22;4920;49.594;11.022;2023-04-08T03:42:37;5.30;99.90
9762;DHT22;4920;49.594;11.022;2023-04-08T03:45:06;5.30;99.90
9762;DHT22;4920;49.594;11.022;2023-04-08T03:47:35;5.40;99.90
9762;DHT22;4920;49.594;11.022;2023-04-08T03:50:06;5.40;99.90
9762;DHT22;4920;49.594;11.022;2023-04-08T03:52:35;5.40;99.90
9762;DHT22;4920;49.594;11.022;2023-04-08T03:55:04;5.50;99.90
9762;DHT22;4920;49.594;11.022;2023-04-08T03:57:33;5.50;99.90
9762;DHT22;4920;49.594;11.022;2023-04-08T04:00:02;5.60;99.90
9762;DHT22;4920;49.594;11.022;2023-04-08T04:02:38;5.60;99.90
9762;DHT22;4920;49.594;11.022;2023-04-08T04:05:08;5.60;99.90
9762;DHT22;4920;49.594;11.022;2023-04-08T04:07:37;5.70;99.90
9762;DHT22;4920;49.594;11.022;2023-04-08T04:10:06;5.70;99.90
9762;DHT22;4920;49.594;11.022;2023-04-08T04:12:36;5.70;99.90
9762;DHT22;4920;49.594;11.022;2023-04-08T04:15:06;5.70;99.90
9762;DHT22;4920;49.594;11.022;2023-04-08T04:17:34;5.80;99.90
9762;DHT22;4920;49.594;11.022;2023-04-08T04:20:03;5.70;99.90
9762;DHT22;4920;49.594;11.022;2023-04-08T04:22:34;5.70;99.90
9762;DHT22;4920;49.594;11.022;2023-04-08T04:25:02;5.80;99.90
9762;DHT22;4920;49.594;11.022;2023-04-08T04:27:31;5.80;99.90
9762;DHT22;4920;49.594;11.022;2023-04-08T04:30:00;5.80;99.90
9762;DHT22;4920;49.594;11.022;2023-04-08T04:32:29;5.80;99.90
9762;DHT22;4920;49.594;11.022;2023-04-08T04:34:57;5.70;99.90
9762;DHT22;4920;49.594;11.022;2023-04-08T04:37:26;5.80;99.90
9762;DHT22;4920;49.594;11.022;2023-04-08T04:39:56;5.70;99.90
9762;DHT22;4920;49.594;11.022;2023-04-08T04:42:25;5.70;99.90
9762;DHT22;4920;49.594;11.022;2023-04-08T04:44:53;5.70;99.90
9762;DHT22;4920;49.594;11.022;2023-04-08T04:47:22;5.70;99.90
9762;DHT22;4920;49.594;11.022;2023-04-08T04:49:51;5.80;99.90
9762;DHT22;4920;49.594;11.022;2023-04-08T04:52:19;5.70;99.90
9762;DHT22;4920;49.594;11.022;2023-04-08T04:54:48;5.80;99.90
9762;DHT22;4920;49.594;11.022;2023-04-08T04:57:18;5.80;99.90
9762;DHT22;4920;49.594;11.022;2023-04-08T04:59:46;5.80;99.90
9762;DHT22;4920;49.594;11.022;2023-04-08T05:02:15;5.90;99.90
9762;DHT22;4920;49.594;11.022;2023-04-08T05:04:44;5.80;99.90
9762;DHT22;4920;49.594;11.022;2023-04-08T05:07:13;5.90;99.90
9762;DHT22;4920;49.594;11.022;2023-04-08T05:09:41;5.90;99.90
9762;DHT22;4920;49.594;11.022;2023-04-08T05:12:10;5.90;99.90
9762;DHT22;4920;49.594;11.022;2023-04-08T05:14:40;6.00;99.90
9762;DHT22;4920;49.594;11.022;2023-04-08T05:17:09;6.00;99.90
9762;DHT22;4920;49.594;11.022;2023-04-08T05:19:38;6.10;99.90
9762;DHT22;4920;49.594;11.022;2023-04-08T05:22:06;6.10;99.90
9762;DHT22;4920;49.594;11.022;2023-04-08T05:24:35;6.10;99.90
9762;DHT22;4920;49.594;11.022;2023-04-08T05:27:03;6.10;99.90
9762;DHT22;4920;49.594;11.022;2023-04-08T05:29:32;6.20;99.90
9762;DHT22;4920;49.594;11.022;2023-04-08T05:32:02;6.20;99.90
9762;DHT22;4920;49.594;11.022;2023-04-08T05:34:32;6.20;99.90
9762;DHT22;4920;49.594;11.022;2023-04-08T05:37:00;6.30;99.90
9762;DHT22;4920;49.594;11.022;2023-04-08T05:39:29;6.30;99.90
9762;DHT22;4920;49.594;11.022;2023-04-08T05:41:58;6.30;99.90
9762;DHT22;4920;49.594;11.022;2023-04-08T05:44:26;6.30;99.90
9762;DHT22;4920;49.594;11.022;2023-04-08T05:46:55;6.20;99.90
9762;DHT22;4920;49.594;11.022;2023-04-08T05:49:26;6.30;99.90
9762;DHT22;4920;49.594;11.022;2023-04-08T05:51:54;6.20;99.90
9762;DHT22;4920;49.594;11.022;2023-04-08T05:54:23;6.20;99.90
9762;DHT22;4920;49.594;11.022;2023-04-08T05:56:52;6.20;99.90
9762;DHT22;4920;49.594;11.022;2023-04-08T05:59:20;6.20;99.90
9762;DHT22;4920;49.594;11.022;2023-04-08T06:01:49;6.30;99.90
9762;DHT22;4920;49.594;11.022;2023-04-08T06:04:17;6.30;99.90
9762;DHT22;4920;49.594;11.022;2023-04-08T06:06:48;6.30;99.90
9762;DHT22;4920;49.594;11.022;2023-04-08T06:09:16;6.30;99.90
9762;DHT22;4920;49.594;11.022;2023-04-08T06:11:45;6.20;99.90
9762;DHT22;4920;49.594;11.022;2023-04-08T06:14:15;6.10;99.90
9762;DHT22;4920;49.594;11.022;2023-04-08T06:16:44;6.10;99.90
9762;DHT22;4920;49.594;11.022;2023-04-08T06:19:13;6.10;99.90
9762;DHT22;4920;49.594;11.022;2023-04-08T06:21:42;6.10;99.90
9762;DHT22;4920;49.594;11.022;2023-04-08T06:24:12;6.10;99.90
9762;DHT22;4920;49.594;11.022;2023-04-08T06:26:41;6.10;99.90
9762;DHT22;4920;49.594;11.022;2023-04-08T06:29:09;6.10;99.90
9762;DHT22;4920;49.594;11.022;2023-04-08T06:31:38;6.10;99.90
9762;DHT22;4920;49.594;11.022;2023-04-08T06:34:07;6.10;99.90
9762;DHT22;4920;49.594;11.022;2023-04-08T06:36:36;6.10;99.90
9762;DHT22;4920;49.594;11.022;2023-04-08T06:39:05;6.10;99.90
9762;DHT22;4920;49.594;11.022;2023-04-08T06:41:35;6.10;99.90
9762;DHT22;4920;49.594;11.022;2023-04-08T06:44:18;6.00;99.90
9762;DHT22;4920;49.594;11.022;2023-04-08T06:46:47;6.00;99.90
9762;DHT22;4920;49.594;11.022;2023-04-08T06:49:15;5.90;99.90
9762;DHT22;4920;49.594;11.022;2023-04-08T06:51:44;5.80;99.90
9762;DHT22;4920;49.594;11.022;2023-04-08T06:54:13;5.80;99.90
9762;DHT22;4920;49.594;11.022;2023-04-08T06:56:43;5.80;99.90
9762;DHT22;4920;49.594;11.022;2023-04-08T06:59:11;5.80;99.90
9762;DHT22;4920;49.594;11.022;2023-04-08T07:01:40;5.80;99.90
9762;DHT22;4920;49.594;11.022;2023-04-08T07:04:09;5.90;99.90
9762;DHT22;4920;49.594;11.022;2023-04-08T07:06:38;5.80;99.90
9762;DHT22;4920;49.594;11.022;2023-04-08T07:09:06;5.90;99.90
9762;DHT22;4920;49.594;11.022;2023-04-08T07:11:35;5.90;99.90
9762;DHT22;4920;49.594;11.022;2023-04-08T07:14:05;6.00;99.90
9762;DHT22;4920;49.594;11.022;2023-04-08T07:16:34;6.20;99.90
9762;DHT22;4920;49.594;11.022;2023-04-08T07:19:03;6.30;99.90
9762;DHT22;4920;49.594;11.022;2023-04-08T07:21:31;6.40;99.90
9762;DHT22;4920;49.594;11.022;2023-04-08T07:24:00;6.50;99.90
9762;DHT22;4920;49.594;11.022;2023-04-08T07:26:28;6.50;99.90
9762;DHT22;4920;49.594;11.022;2023-04-08T07:28:57;6.50;99.90
9762;DHT22;4920;49.594;11.022;2023-04-08T07:31:27;6.50;99.90
9762;DHT22;4920;49.594;11.022;2023-04-08T07:33:56;6.50;99.90
9762;DHT22;4920;49.594;11.022;2023-04-08T07:36:24;6.50;99.90
9762;DHT22;4920;49.594;11.022;2023-04-08T07:38:54;6.50;99.90
9762;DHT22;4920;49.594;11.022;2023-04-08T07:41:22;6.40;99.90
9762;DHT22;4920;49.594;11.022;2023-04-08T07:43:51;6.40;99.90
9762;DHT22;4920;49.594;11.022;2023-04-08T07:46:20;6.50;99.90
9762;DHT22;4920;49.594;11.022;2023-04-08T07:48:50;6.50;99.90
9762;DHT22;4920;49.594;11.022;2023-04-08T07:51:19;6.50;99.90
9762;DHT22;4920;49.594;11.022;2023-04-08T07:53:47;6.60;99.90
9762;DHT22;4920;49.594;11.022;2023-04-08T07:56:16;6.70;99.90
9762;DHT22;4920;49.594;11.022;2023-04-08T07:58:45;6.80;99.90
9762;DHT22;4920;49.594;11.022;2023-04-08T08:01:18;6.80;99.90
9762;DHT22;4920;49.594;11.022;2023-04-08T08:03:50;6.80;99.90
9762;DHT22;4920;49.594;11.022;2023-04-08T08:06:20;6.90;99.90
9762;DHT22;4920;49.594;11.022;2023-04-08T08:08:49;7.00;99.90
9762;DHT22;4920;49.594;11.022;2023-04-08T08:11:18;7.10;99.90
9762;DHT22;4920;49.594;11.022;2023-04-08T08:13:47;7.10;99.90
9762;DHT22;4920;49.594;11.022;2023-04-08T08:16:16;7.20;99.90
9762;DHT22;4920;49.594;11.022;2023-04-08T08:18:45;7.20;99.90
9762;DHT22;4920;49.594;11.022;2023-04-08T08:21:15;7.20;99.90
9762;DHT22;4920;49.594;11.022;2023-04-08T08:23:44;7.20;99.90
9762;DHT22;4920;49.594;11.022;2023-04-08T08:26:13;7.20;99.90
9762;DHT22;4920;49.594;11.022;2023-04-08T08:28:42;7.20;99.90
9762;DHT22;4920;49.594;11.022;2023-04-08T08:31:10;7.20;99.90
9762;DHT22;4920;49.594;11.022;2023-04-08T08:33:39;7.20;99.90
9762;DHT22;4920;49.594;11.022;2023-04-08T08:36:08;7.20;99.90
9762;DHT22;4920;49.594;11.022;2023-04-08T08:38:38;7.30;99.90
9762;DHT22;4920;49.594;11.022;2023-04-08T08:41:07;7.40;99.90
9762;DHT22;4920;49.594;11.022;2023-04-08T08:43:36;7.60;99.90
9762;DHT22;4920;49.594;11.022;2023-04-08T08:46:09;7.70;99.90
9762;DHT22;4920;49.594;11.022;2023-04-08T08:48:38;7.70;99.90
9762;DHT22;4920;49.594;11.022;2023-04-08T08:51:07;7.70;99.90
9762;DHT22;4920;49.594;11.022;2023-04-08T08:53:38;7.80;99.90
9762;DHT22;4920;49.594;11.022;2023-04-08T08:56:11;7.80;99.90
9762;DHT22;4920;49.594;11.022;2023-04-08T08:58:45;7.80;99.90
9762;DHT22;4920;49.594;11.022;2023-04-08T09:01:33;7.70;99.90
9762;DHT22;4920;49.594;11.022;2023-04-08T09:04:08;7.70;99.90
9762;DHT22;4920;49.594;11.022;2023-04-08T09:06:38;7.70;99.90
9762;DHT22;4920;49.594;11.022;2023-04-08T09:09:08;7.60;99.90
9762;DHT22;4920;49.594;11.022;2023-04-08T09:11:41;7.60;99.90
9762;DHT22;4920;49.594;11.022;2023-04-08T09:14:20;7.40;99.90
9762;DHT22;4920;49.594;11.022;2023-04-08T09:16:49;7.30;99.90
9762;DHT22;4920;49.594;11.022;2023-04-08T09:19:18;7.10;99.90
9762;DHT22;4920;49.594;11.022;2023-04-08T09:22:05;7.10;99.90
9762;DHT22;4920;49.594;11.022;2023-04-08T09:24:36;7.10;99.90
9762;DHT22;4920;49.594;11.022;2023-04-08T09:27:05;7.00;99.90
9762;DHT22;4920;49.594;11.022;2023-04-08T09:29:33;7.10;99.90
9762;DHT22;4920;49.594;11.022;2023-04-08T09:32:06;7.10;99.90
9762;DHT22;4920;49.594;11.022;2023-04-08T09:34:34;7.20;99.90
9762;DHT22;4920;49.594;11.022;2023-04-08T09:37:03;7.30;99.90
9762;DHT22;4920;49.594;11.022;2023-04-08T09:39:34;7.30;99.90
9762;DHT22;4920;49.594;11.022;2023-04-08T09:42:04;7.40;99.90
9762;DHT22;4920;49.594;11.022;2023-04-08T09:44:36;7.60;99.90
9762;DHT22;4920;49.594;11.022;2023-04-08T09:47:09;7.70;99.90
9762;DHT22;4920;49.594;11.022;2023-04-08T09:49:45;7.90;99.90
9762;DHT22;4920;49.594;11.022;2023-04-08T09:52:16;8.10;99.90
9762;DHT22;4920;49.594;11.022;2023-04-08T09:54:53;8.50;99.90
9762;DHT22;4920;49.594;11.022;2023-04-08T09:57:30;8.90;99.90
9762;DHT22;4920;49.594;11.022;2023-04-08T10:00:07;9.40;99.90
9762;DHT22;4920;49.594;11.022;2023-04-08T10:02:46;9.80;99.90
9762;DHT22;4920;49.594;11.022;2023-04-08T10:05:17;10.30;99.90
9762;DHT22;4920;49.594;11.022;2023-04-08T10:07:47;10.80;99.90
9762;DHT22;4920;49.594;11.022;2023-04-08T10:10:19;11.00;99.90
9762;DHT22;4920;49.594;11.022;2023-04-08T10:12:48;11.00;99.90
9762;DHT22;4920;49.594;11.022;2023-04-08T10:15:24;10.80;99.90
9762;DHT22;4920;49.594;11.022;2023-04-08T10:17:54;10.50;99.90
9762;DHT22;4920;49.594;11.022;2023-04-08T10:20:41;10.30;99.90
9762;DHT22;4920;49.594;11.022;2023-04-08T10:23:11;10.10;99.90
9762;DHT22;4920;49.594;11.022;2023-04-08T10:25:42;9.90;99.90
9762;DHT22;4920;49.594;11.022;2023-04-08T10:28:24;9.60;99.90
9762;DHT22;4920;49.594;11.022;2023-04-08T10:30:54;9.50;99.90
9762;DHT22;4920;49.594;11.022;2023-04-08T10:33:31;9.40;99.90
9762;DHT22;4920;49.594;11.022;2023-04-08T10:36:08;9.50;99.90
9762;DHT22;4920;49.594;11.022;2023-04-08T10:38:38;9.80;99.90
9762;DHT22;4920;49.594;11.022;2023-04-08T10:41:10;10.20;99.90
9762;DHT22;4920;49.594;11.022;2023-04-08T10:43:40;10.60;99.90
9762;DHT22;4920;49.594;11.022;2023-04-08T10:46:09;10.90;99.90
9762;DHT22;4920;49.594;11.022;2023-04-08T10:48:38;11.30;99.90
9762;DHT22;4920;49.594;11.022;2023-04-08T10:51:07;11.70;99.90
9762;DHT22;4920;49.594;11.022;2023-04-08T10:53:37;12.00;99.90
9762;DHT22;4920;49.594;11.022;2023-04-08T10:56:07;12.20;99.90
9762;DHT22;4920;49.594;11.022;2023-04-08T10:58:48;12.20;99.90
9762;DHT22;4920;49.594;11.022;2023-04-08T11:01:17;12.20;99.90
9762;DHT22;4920;49.594;11.022;2023-04-08T11:03:47;12.30;99.90
9762;DHT22;4920;49.594;11.022;2023-04-08T11:06:16;12.30;99.90
9762;DHT22;4920;49.594;11.022;2023-04-08T11:08:45;12.30;99.90
9762;DHT22;4920;49.594;11.022;2023-04-08T11:11:14;12.40;99.90
9762;DHT22;4920;49.594;11.022;2023-04-08T11:13:44;12.60;99.90
9762;DHT22;4920;49.594;11.022;2023-04-08T11:16:21;12.60;99.90
9762;DHT22;4920;49.594;11.022;2023-04-08T11:18:50;12.40;99.90
9762;DHT22;4920;49.594;11.022;2023-04-08T11:21:19;12.30;99.90
9762;DHT22;4920;49.594;11.022;2023-04-08T11:23:50;12.10;99.90
9762;DHT22;4920;49.594;11.022;2023-04-08T11:26:20;11.90;99.90
9762;DHT22;4920;49.594;11.022;2023-04-08T11:28:49;11.90;99.90
9762;DHT22;4920;49.594;11.022;2023-04-08T11:31:18;11.80;99.90
9762;DHT22;4920;49.594;11.022;2023-04-08T11:33:53;11.70;99.90
9762;DHT22;4920;49.594;11.022;2023-04-08T11:36:22;11.40;99.90
9762;DHT22;4920;49.594;11.022;2023-04-08T11:38:53;11.10;99.90
9762;DHT22;4920;49.594;11.022;2023-04-08T11:41:22;11.10;99.90
9762;DHT22;4920;49.594;11.022;2023-04-08T11:43:53;11.10;99.90
9762;DHT22;4920;49.594;11.022;2023-04-08T11:46:23;11.00;99.90
9762;DHT22;4920;49.594;11.022;2023-04-08T11:49:04;11.20;99.90
9762;DHT22;4920;49.594;11.022;2023-04-08T11:51:37;11.30;99.90
9762;DHT22;4920;49.594;11.022;2023-04-08T11:54:27;11.50;99.90
9762;DHT22;4920;49.594;11.022;2023-04-08T11:56:56;11.40;99.90
9762;DHT22;4920;49.594;11.022;2023-04-08T11:59:25;11.50;99.90
9762;DHT22;4920;49.594;11.022;2023-04-08T12:01:56;11.60;99.90
9762;DHT22;4920;49.594;11.022;2023-04-08T12:04:26;12.00;99.90
9762;DHT22;4920;49.594;11.022;2023-04-08T12:06:56;12.40;99.90
9762;DHT22;4920;49.594;11.022;2023-04-08T12:09:24;12.80;99.90
9762;DHT22;4920;49.594;11.022;2023-04-08T12:11:53;13.00;99.90
9762;DHT22;4920;49.594;11.022;2023-04-08T12:14:22;13.10;99.90
9762;DHT22;4920;49.594;11.022;2023-04-08T12:16:54;12.90;99.90
9762;DHT22;4920;49.594;11.022;2023-04-08T12:19:23;12.30;99.90
9762;DHT22;4920;49.594;11.022;2023-04-08T12:21:53;11.80;99.90
9762;DHT22;4920;49.594;11.022;2023-04-08T12:24:22;11.40;99.90
9762;DHT22;4920;49.594;11.022;2023-04-08T12:26:50;11.10;99.90
9762;DHT22;4920;49.594;11.022;2023-04-08T12:29:19;10.80;99.90
9762;DHT22;4920;49.594;11.022;2023-04-08T12:31:47;10.60;99.90
9762;DHT22;4920;49.594;11.022;2023-04-08T12:34:16;10.50;99.90
9762;DHT22;4920;49.594;11.022;2023-04-08T12:36:46;10.40;99.90
9762;DHT22;4920;49.594;11.022;2023-04-08T12:39:17;10.30;99.90
9762;DHT22;4920;49.594;11.022;2023-04-08T12:41:46;10.30;99.90
9762;DHT22;4920;49.594;11.022;2023-04-08T12:44:14;10.30;99.90
9762;DHT22;4920;49.594;11.022;2023-04-08T12:46:43;10.30;99.90
9762;DHT22;4920;49.594;11.022;2023-04-08T12:49:12;10.40;99.90
9762;DHT22;4920;49.594;11.022;2023-04-08T12:51:40;10.50;99.90
9762;DHT22;4920;49.594;11.022;2023-04-08T12:54:09;10.60;99.90
9762;DHT22;4920;49.594;11.022;2023-04-08T12:56:40;10.80;99.90
9762;DHT22;4920;49.594;11.022;2023-04-08T12:59:09;11.10;99.90
9762;DHT22;4920;49.594;11.022;2023-04-08T13:01:38;11.30;99.90
9762;DHT22;4920;49.594;11.022;2023-04-08T13:04:06;11.60;99.90
9762;DHT22;4920;49.594;11.022;2023-04-08T13:06:35;11.80;99.90
9762;DHT22;4920;49.594;11.022;2023-04-08T13:09:04;11.80;99.90
9762;DHT22;4920;49.594;11.022;2023-04-08T13:11:33;12.00;99.90
9762;DHT22;4920;49.594;11.022;2023-04-08T13:14:03;11.80;99.90
9762;DHT22;4920;49.594;11.022;2023-04-08T13:16:31;11.90;99.90
9762;DHT22;4920;49.594;11.022;2023-04-08T13:19:00;11.90;99.90
9762;DHT22;4920;49.594;11.022;2023-04-08T13:21:28;11.90;99.90
9762;DHT22;4920;49.594;11.022;2023-04-08T13:23:57;11.80;99.90
9762;DHT22;4920;49.594;11.022;2023-04-08T13:26:26;11.90;99.90
9762;DHT22;4920;49.594;11.022;2023-04-08T13:28:55;11.90;99.90
9762;DHT22;4920;49.594;11.022;2023-04-08T13:31:26;11.80;99.90
9762;DHT22;4920;49.594;11.022;2023-04-08T13:33:54;11.70;99.90
9762;DHT22;4920;49.594;11.022;2023-04-08T13:36:24;11.80;99.90
9762;DHT22;4920;49.594;11.022;2023-04-08T13:38:55;11.90;99.90
9762;DHT22;4920;49.594;11.022;2023-04-08T13:41:23;12.00;99.90
9762;DHT22;4920;49.594;11.022;2023-04-08T13:43:54;12.20;99.90
9762;DHT22;4920;49.594;11.022;2023-04-08T13:46:23;12.20;99.90
9762;DHT22;4920;49.594;11.022;2023-04-08T13:48:53;12.10;99.90
9762;DHT22;4920;49.594;11.022;2023-04-08T13:51:22;12.10;99.90
9762;DHT22;4920;49.594;11.022;2023-04-08T13:53:50;12.00;99.90
9762;DHT22;4920;49.594;11.022;2023-04-08T13:56:19;11.90;99.90
9762;DHT22;4920;49.594;11.022;2023-04-08T13:58:48;11.70;99.90
9762;DHT22;4920;49.594;11.022;2023-04-08T14:01:23;11.60;99.90
9762;DHT22;4920;49.594;11.022;2023-04-08T14:03:53;11.50;99.90
9762;DHT22;4920;49.594;11.022;2023-04-08T14:06:22;11.60;99.90
9762;DHT22;4920;49.594;11.022;2023-04-08T14:08:51;11.70;99.90
9762;DHT22;4920;49.594;11.022;2023-04-08T14:11:20;11.90;99.90
9762;DHT22;4920;49.594;11.022;2023-04-08T14:13:48;12.10;99.90
9762;DHT22;4920;49.594;11.022;2023-04-08T14:16:17;12.30;99.90
9762;DHT22;4920;49.594;11.022;2023-04-08T14:18:46;12.30;99.90
9762;DHT22;4920;49.594;11.022;2023-04-08T14:21:16;12.20;99.90
9762;DHT22;4920;49.594;11.022;2023-04-08T14:23:45;12.00;99.90
9762;DHT22;4920;49.594;11.022;2023-04-08T14:26:14;11.90;99.90
9762;DHT22;4920;49.594;11.022;2023-04-08T14:28:43;11.90;99.90
9762;DHT22;4920;49.594;11.022;2023-04-08T14:31:11;11.80;99.90
9762;DHT22;4920;49.594;11.022;2023-04-08T14:33:40;11.70;99.90
9762;DHT22;4920;49.594;11.022;2023-04-08T14:36:09;11.60;99.90
9762;DHT22;4920;49.594;11.022;2023-04-08T14:38:39;11.50;99.90
9762;DHT22;4920;49.594;11.022;2023-04-08T14:41:08;11.20;99.90
9762;DHT22;4920;49.594;11.022;2023-04-08T14:43:37;11.20;99.90
9762;DHT22;4920;49.594;11.022;2023-04-08T14:46:05;11.20;99.90
9762;DHT22;4920;49.594;11.022;2023-04-08T14:48:34;11.20;99.90
9762;DHT22;4920;49.594;11.022;2023-04-08T14:51:03;11.10;99.90
9762;DHT22;4920;49.594;11.022;2023-04-08T14:53:32;11.10;99.90
9762;DHT22;4920;49.594;11.022;2023-04-08T14:56:02;11.20;99.90
9762;DHT22;4920;49.594;11.022;2023-04-08T14:58:31;11.20;99.90
9762;DHT22;4920;49.594;11.022;2023-04-08T15:01:00;11.30;99.90
9762;DHT22;4920;49.594;11.022;2023-04-08T15:03:28;11.40;99.90
9762;DHT22;4920;49.594;11.022;2023-04-08T15:05:57;11.30;99.90
9762;DHT22;4920;49.594;11.022;2023-04-08T15:08:27;11.30;99.90
9762;DHT22;4920;49.594;11.022;2023-04-08T15:10:56;11.40;99.90
9762;DHT22;4920;49.594;11.022;2023-04-08T15:13:26;11.40;99.90
9762;DHT22;4920;49.594;11.022;2023-04-08T15:15:54;11.30;99.90
9762;DHT22;4920;49.594;11.022;2023-04-08T15:18:23;11.20;99.90
9762;DHT22;4920;49.594;11.022;2023-04-08T15:20:51;11.10;99.90
9762;DHT22;4920;49.594;11.022;2023-04-08T15:23:20;11.10;99.90
9762;DHT22;4920;49.594;11.022;2023-04-08T15:25:49;11.00;99.90
9762;DHT22;4920;49.594;11.022;2023-04-08T15:28:18;11.00;99.90
9762;DHT22;4920;49.594;11.022;2023-04-08T15:30:48;11.00;99.90
9762;DHT22;4920;49.594;11.022;2023-04-08T15:33:17;10.90;99.90
9762;DHT22;4920;49.594;11.022;2023-04-08T15:35:46;10.90;99.90
9762;DHT22;4920;49.594;11.022;2023-04-08T15:38:15;10.90;99.90
9762;DHT22;4920;49.594;11.022;2023-04-08T15:40:43;10.90;99.90
9762;DHT22;4920;49.594;11.022;2023-04-08T15:43:14;11.00;99.90
9762;DHT22;4920;49.594;11.022;2023-04-08T15:45:42;11.10;99.90
9762;DHT22;4920;49.594;11.022;2023-04-08T15:48:14;11.10;99.90
9762;DHT22;4920;49.594;11.022;2023-04-08T15:50:42;11.10;99.90
9762;DHT22;4920;49.594;11.022;2023-04-08T15:53:11;11.20;99.90
9762;DHT22;4920;49.594;11.022;2023-04-08T15:55:40;11.30;99.90
9762;DHT22;4920;49.594;11.022;2023-04-08T15:58:09;11.30;99.90
9762;DHT22;4920;49.594;11.022;2023-04-08T16:00:38;11.30;99.90
9762;DHT22;4920;49.594;11.022;2023-04-08T16:03:06;11.30;99.90
9762;DHT22;4920;49.594;11.022;2023-04-08T16:05:39;11.20;99.90
9762;DHT22;4920;49.594;11.022;2023-04-08T16:08:09;11.10;99.90
9762;DHT22;4920;49.594;11.022;2023-04-08T16:10:37;11.00;99.90
9762;DHT22;4920;49.594;11.022;2023-04-08T16:13:06;10.80;99.90